sensor_id;sensor_type;location;lat;lon;timestamp;temperature;humidity
7129;DHT22;3606;52.930;8.644;2023-01-06T00:02:20;9.70;99.90
7129;DHT22;3606;52.930;8.644;2023-01-06T00:04:46;9.80;99.90
7129;DHT22;3606;52.930;8.644;2023-01-06T00:07:11;9.80;99.90
7129;DHT22;3606;52.930;8.644;2023-01-06T00:09:37;9.80;99.90
7129;DHT22;3606;52.930;8.644;2023-01-06T00:12:03;9.80;99.90
7129;DHT22;3606;52.930;8.644;2023-01-06T00:14:28;9.80;99.90
7129;DHT22;3606;52.930;8.644;2023-01-06T00:16:54;9.80;99.90
7129;DHT22;3606;52.930;8.644;2023-01-06T00:19:20;9.90;99.90
7129;DHT22;3606;52.930;8.644;2023-01-06T00:21:45;9.90;99.90
7129;DHT22;3606;52.930;8.644;2023-01-06T00:24:11;9.90;99.90
7129;DHT22;3606;52.930;8.644;2023-01-06T00:26:37;9.90;99.90
7129;DHT22;3606;52.930;8.644;2023-01-06T00:29:03;9.90;99.90
7129;DHT22;3606;52.930;8.644;2023-01-06T00:31:28;9.90;99.90
7129;DHT22;3606;52.930;8.644;2023-01-06T00:33:55;9.90;99.90
7129;DHT22;3606;52.930;8.644;2023-01-06T00:36:21;9.90;99.90
7129;DHT22;3606;52.930;8.644;2023-01-06T00:38:48;9.90;99.90
7129;DHT22;3606;52.930;8.644;2023-01-06T00:41:15;10.00;99.90
7129;DHT22;3606;52.930;8.644;2023-01-06T00:44:00;10.10;99.90
7129;DHT22;3606;52.930;8.644;2023-01-06T00:46:27;10.00;99.90
7129;DHT22;3606;52.930;8.644;2023-01-06T00:48:57;10.00;99.90
7129;DHT22;3606;52.930;8.644;2023-01-06T00:51:23;10.00;99.90
7129;DHT22;3606;52.930;8.644;2023-01-06T00:53:48;10.00;99.90
7129;DHT22;3606;52.930;8.644;2023-01-06T00:56:14;10.10;99.90
7129;DHT22;3606;52.930;8.644;2023-01-06T00:58:40;10.10;99.90
7129;DHT22;3606;52.930;8.644;2023-01-06T01:01:07;10.10;99.90
7129;DHT22;3606;52.930;8.644;2023-01-06T01:03:33;10.20;99.90
7129;DHT22;3606;52.930;8.644;2023-01-06T01:06:04;10.20;99.90
7129;DHT22;3606;52.930;8.644;2023-01-06T01:08:30;10.20;99.90
7129;DHT22;3606;52.930;8.644;2023-01-06T01:11:02;10.20;99.90
7129;DHT22;3606;52.930;8.644;2023-01-06T01:13:28;10.20;99.90
7129;DHT22;3606;52.930;8.644;2023-01-06T01:15:54;10.30;99.90
7129;DHT22;3606;52.930;8.644;2023-01-06T01:18:19;10.20;99.90
7129;DHT22;3606;52.930;8.644;2023-01-06T01:20:45;10.30;99.90
7129;DHT22;3606;52.930;8.644;2023-01-06T01:23:11;10.20;99.90
7129;DHT22;3606;52.930;8.644;2023-01-06T01:25:37;10.20;99.90
7129;DHT22;3606;52.930;8.644;2023-01-06T01:28:05;10.20;99.90
7129;DHT22;3606;52.930;8.644;2023-01-06T01:30:31;10.30;99.90
7129;DHT22;3606;52.930;8.644;2023-01-06T01:32:56;10.30;99.90
7129;DHT22;3606;52.930;8.644;2023-01-06T01:35:22;10.30;99.90
7129;DHT22;3606;52.930;8.644;2023-01-06T01:37:47;10.30;99.90
7129;DHT22;3606;52.930;8.644;2023-01-06T01:40:13;10.30;99.90
7129;DHT22;3606;52.930;8.644;2023-01-06T01:42:38;10.30;99.90
7129;DHT22;3606;52.930;8.644;2023-01-06T01:45:13;10.30;99.90
7129;DHT22;3606;52.930;8.644;2023-01-06T01:50:24;10.40;99.90
7129;DHT22;3606;52.930;8.644;2023-01-06T01:52:55;10.30;99.90
7129;DHT22;3606;52.930;8.644;2023-01-06T01:55:22;10.40;99.90
7129;DHT22;3606;52.930;8.644;2023-01-06T01:57:57;10.30;99.90
7129;DHT22;3606;52.930;8.644;2023-01-06T02:00:23;10.30;99.90
7129;DHT22;3606;52.930;8.644;2023-01-06T02:02:49;10.30;99.90
7129;DHT22;3606;52.930;8.644;2023-01-06T02:05:19;10.30;99.90
7129;DHT22;3606;52.930;8.644;2023-01-06T02:07:46;10.20;99.90
7129;DHT22;3606;52.930;8.644;2023-01-06T02:12:40;10.20;99.90
7129;DHT22;3606;52.930;8.644;2023-01-06T02:15:22;10.20;99.90
7129;DHT22;3606;52.930;8.644;2023-01-06T02:21:02;10.30;99.90
7129;DHT22;3606;52.930;8.644;2023-01-06T02:31:51;10.30;99.90
7129;DHT22;3606;52.930;8.644;2023-01-06T02:34:31;10.30;99.90
7129;DHT22;3606;52.930;8.644;2023-01-06T02:45:20;10.30;99.90
7129;DHT22;3606;52.930;8.644;2023-01-06T02:48:03;10.30;99.90
7129;DHT22;3606;52.930;8.644;2023-01-06T02:51:03;10.30;99.90
7129;DHT22;3606;52.930;8.644;2023-01-06T02:56:00;10.40;99.90
7129;DHT22;3606;52.930;8.644;2023-01-06T03:01:16;10.40;99.90
7129;DHT22;3606;52.930;8.644;2023-01-06T03:03:45;10.40;99.90
7129;DHT22;3606;52.930;8.644;2023-01-06T03:06:14;10.40;99.90
7129;DHT22;3606;52.930;8.644;2023-01-06T03:08:44;10.40;99.90
7129;DHT22;3606;52.930;8.644;2023-01-06T03:11:11;10.40;99.90
7129;DHT22;3606;52.930;8.644;2023-01-06T03:16:15;10.30;99.90
7129;DHT22;3606;52.930;8.644;2023-01-06T03:18:42;10.30;99.90
7129;DHT22;3606;52.930;8.644;2023-01-06T03:21:13;10.30;99.90
7129;DHT22;3606;52.930;8.644;2023-01-06T03:23:40;10.30;99.90
7129;DHT22;3606;52.930;8.644;2023-01-06T03:26:07;10.30;99.90
7129;DHT22;3606;52.930;8.644;2023-01-06T03:28:33;10.40;99.90
7129;DHT22;3606;52.930;8.644;2023-01-06T03:31:15;10.30;99.90
7129;DHT22;3606;52.930;8.644;2023-01-06T03:34:13;10.30;99.90
7129;DHT22;3606;52.930;8.644;2023-01-06T03:45:24;10.40;99.90
7129;DHT22;3606;52.930;8.644;2023-01-06T03:47:54;10.40;99.90
7129;DHT22;3606;52.930;8.644;2023-01-06T03:53:49;10.40;99.90
7129;DHT22;3606;52.930;8.644;2023-01-06T03:56:35;10.40;99.90
7129;DHT22;3606;52.930;8.644;2023-01-06T03:59:07;10.30;99.90
7129;DHT22;3606;52.930;8.644;2023-01-06T04:01:34;10.30;99.90
7129;DHT22;3606;52.930;8.644;2023-01-06T04:04:01;10.40;99.90
7129;DHT22;3606;52.930;8.644;2023-01-06T04:06:27;10.30;99.90
7129;DHT22;3606;52.930;8.644;2023-01-06T04:08:53;10.40;99.90
7129;DHT22;3606;52.930;8.644;2023-01-06T04:11:19;10.40;99.90
7129;DHT22;3606;52.930;8.644;2023-01-06T04:14:03;10.30;99.90
7129;DHT22;3606;52.930;8.644;2023-01-06T04:16:28;10.30;99.90
7129;DHT22;3606;52.930;8.644;2023-01-06T04:18:54;10.20;99.90
7129;DHT22;3606;52.930;8.644;2023-01-06T04:21:19;10.20;99.90
7129;DHT22;3606;52.930;8.644;2023-01-06T04:23:45;10.20;99.90
7129;DHT22;3606;52.930;8.644;2023-01-06T04:26:11;10.20;99.90
7129;DHT22;3606;52.930;8.644;2023-01-06T04:28:36;10.20;99.90
7129;DHT22;3606;52.930;8.644;2023-01-06T04:31:02;10.20;99.90
7129;DHT22;3606;52.930;8.644;2023-01-06T04:33:28;10.20;99.90
7129;DHT22;3606;52.930;8.644;2023-01-06T04:35:53;10.20;99.90
7129;DHT22;3606;52.930;8.644;2023-01-06T04:38:19;10.20;99.90
7129;DHT22;3606;52.930;8.644;2023-01-06T04:40:45;10.20;99.90
7129;DHT22;3606;52.930;8.644;2023-01-06T04:43:11;10.20;99.90
7129;DHT22;3606;52.930;8.644;2023-01-06T04:45:41;10.30;99.90
7129;DHT22;3606;52.930;8.644;2023-01-06T04:48:08;10.30;99.90
7129;DHT22;3606;52.930;8.644;2023-01-06T04:50:34;10.30;99.90
7129;DHT22;3606;52.930;8.644;2023-01-06T04:52:59;10.30;99.90
7129;DHT22;3606;52.930;8.644;2023-01-06T04:55:25;10.30;99.90
7129;DHT22;3606;52.930;8.644;2023-01-06T04:57:51;10.40;99.90
7129;DHT22;3606;52.930;8.644;2023-01-06T05:00:17;10.30;99.90
7129;DHT22;3606;52.930;8.644;2023-01-06T05:02:43;10.40;99.90
7129;DHT22;3606;52.930;8.644;2023-01-06T05:05:09;10.30;99.90
7129;DHT22;3606;52.930;8.644;2023-01-06T05:07:35;10.30;99.90
7129;DHT22;3606;52.930;8.644;2023-01-06T05:10:00;10.30;99.90
7129;DHT22;3606;52.930;8.644;2023-01-06T05:12:26;10.30;99.90
7129;DHT22;3606;52.930;8.644;2023-01-06T05:14:52;10.30;99.90
7129;DHT22;3606;52.930;8.644;2023-01-06T05:17:17;10.30;99.90
7129;DHT22;3606;52.930;8.644;2023-01-06T05:19:43;10.40;99.90
7129;DHT22;3606;52.930;8.644;2023-01-06T05:22:10;10.30;99.90
7129;DHT22;3606;52.930;8.644;2023-01-06T05:24:36;10.30;99.90
7129;DHT22;3606;52.930;8.644;2023-01-06T05:27:02;10.30;99.90
7129;DHT22;3606;52.930;8.644;2023-01-06T05:29:28;10.40;99.90
7129;DHT22;3606;52.930;8.644;2023-01-06T05:31:53;10.30;99.90
7129;DHT22;3606;52.930;8.644;2023-01-06T05:34:19;10.30;99.90
7129;DHT22;3606;52.930;8.644;2023-01-06T05:36:44;10.30;99.90
7129;DHT22;3606;52.930;8.644;2023-01-06T05:39:10;10.30;99.90
7129;DHT22;3606;52.930;8.644;2023-01-06T05:41:35;10.40;99.90
7129;DHT22;3606;52.930;8.644;2023-01-06T05:44:01;10.40;99.90
7129;DHT22;3606;52.930;8.644;2023-01-06T05:46:27;10.40;99.90
7129;DHT22;3606;52.930;8.644;2023-01-06T05:48:52;10.40;99.90
7129;DHT22;3606;52.930;8.644;2023-01-06T05:51:18;10.30;99.90
7129;DHT22;3606;52.930;8.644;2023-01-06T05:53:45;10.40;99.90
7129;DHT22;3606;52.930;8.644;2023-01-06T05:56:13;10.40;99.90
7129;DHT22;3606;52.930;8.644;2023-01-06T05:58:43;10.40;99.90
7129;DHT22;3606;52.930;8.644;2023-01-06T06:01:28;10.50;99.90
7129;DHT22;3606;52.930;8.644;2023-01-06T06:03:54;10.50;99.90
7129;DHT22;3606;52.930;8.644;2023-01-06T06:06:23;10.50;99.90
7129;DHT22;3606;52.930;8.644;2023-01-06T06:08:49;10.50;99.90
7129;DHT22;3606;52.930;8.644;2023-01-06T06:11:17;10.50;99.90
7129;DHT22;3606;52.930;8.644;2023-01-06T06:13:54;10.50;99.90
7129;DHT22;3606;52.930;8.644;2023-01-06T06:16:22;10.50;99.90
7129;DHT22;3606;52.930;8.644;2023-01-06T06:18:50;10.50;99.90
7129;DHT22;3606;52.930;8.644;2023-01-06T06:21:19;10.50;99.90
7129;DHT22;3606;52.930;8.644;2023-01-06T06:23:45;10.50;99.90
7129;DHT22;3606;52.930;8.644;2023-01-06T06:26:11;10.40;99.90
7129;DHT22;3606;52.930;8.644;2023-01-06T06:28:37;10.40;99.90
7129;DHT22;3606;52.930;8.644;2023-01-06T06:31:15;10.50;99.90
7129;DHT22;3606;52.930;8.644;2023-01-06T06:33:42;10.50;99.90
7129;DHT22;3606;52.930;8.644;2023-01-06T06:36:08;10.50;99.90
7129;DHT22;3606;52.930;8.644;2023-01-06T06:38:41;10.60;99.90
7129;DHT22;3606;52.930;8.644;2023-01-06T06:41:06;10.50;99.90
7129;DHT22;3606;52.930;8.644;2023-01-06T06:43:32;10.50;99.90
7129;DHT22;3606;52.930;8.644;2023-01-06T06:45:58;10.50;99.90
7129;DHT22;3606;52.930;8.644;2023-01-06T06:48:23;10.50;99.90
7129;DHT22;3606;52.930;8.644;2023-01-06T06:50:57;10.50;99.90
7129;DHT22;3606;52.930;8.644;2023-01-06T06:53:23;10.50;99.90
7129;DHT22;3606;52.930;8.644;2023-01-06T06:55:48;10.50;99.90
7129;DHT22;3606;52.930;8.644;2023-01-06T06:58:14;10.50;99.90
7129;DHT22;3606;52.930;8.644;2023-01-06T07:00:39;10.50;99.90
7129;DHT22;3606;52.930;8.644;2023-01-06T07:03:05;10.50;99.90
7129;DHT22;3606;52.930;8.644;2023-01-06T07:05:31;10.50;99.90
7129;DHT22;3606;52.930;8.644;2023-01-06T07:07:56;10.50;99.90
7129;DHT22;3606;52.930;8.644;2023-01-06T07:10:22;10.50;99.90
7129;DHT22;3606;52.930;8.644;2023-01-06T07:12:47;10.50;99.90
7129;DHT22;3606;52.930;8.644;2023-01-06T07:15:13;10.50;99.90
7129;DHT22;3606;52.930;8.644;2023-01-06T07:17:39;10.60;99.90
7129;DHT22;3606;52.930;8.644;2023-01-06T07:20:06;10.50;99.90
7129;DHT22;3606;52.930;8.644;2023-01-06T07:22:32;10.50;99.90
7129;DHT22;3606;52.930;8.644;2023-01-06T07:25:00;10.50;99.90
7129;DHT22;3606;52.930;8.644;2023-01-06T07:27:26;10.60;99.90
7129;DHT22;3606;52.930;8.644;2023-01-06T07:29:51;10.60;99.90
7129;DHT22;3606;52.930;8.644;2023-01-06T07:32:17;10.60;99.90
7129;DHT22;3606;52.930;8.644;2023-01-06T07:34:42;10.60;99.90
7129;DHT22;3606;52.930;8.644;2023-01-06T07:37:08;10.50;99.90
7129;DHT22;3606;52.930;8.644;2023-01-06T07:39:33;10.50;99.90
7129;DHT22;3606;52.930;8.644;2023-01-06T07:41:59;10.50;99.90
7129;DHT22;3606;52.930;8.644;2023-01-06T07:44:24;10.50;99.90
7129;DHT22;3606;52.930;8.644;2023-01-06T07:46:50;10.50;99.90
7129;DHT22;3606;52.930;8.644;2023-01-06T07:49:16;10.50;99.90
7129;DHT22;3606;52.930;8.644;2023-01-06T07:51:41;10.50;99.90
7129;DHT22;3606;52.930;8.644;2023-01-06T07:54:07;10.50;99.90
7129;DHT22;3606;52.930;8.644;2023-01-06T07:56:32;10.50;99.90
7129;DHT22;3606;52.930;8.644;2023-01-06T07:58:58;10.50;99.90
7129;DHT22;3606;52.930;8.644;2023-01-06T08:01:23;10.50;99.90
7129;DHT22;3606;52.930;8.644;2023-01-06T08:03:49;10.30;99.90
7129;DHT22;3606;52.930;8.644;2023-01-06T08:06:14;10.30;99.90
7129;DHT22;3606;52.930;8.644;2023-01-06T08:08:40;10.40;99.90
7129;DHT22;3606;52.930;8.644;2023-01-06T08:11:07;10.30;99.90
7129;DHT22;3606;52.930;8.644;2023-01-06T08:13:35;10.40;99.90
7129;DHT22;3606;52.930;8.644;2023-01-06T08:16:06;10.40;99.90
7129;DHT22;3606;52.930;8.644;2023-01-06T08:18:32;10.30;99.90
7129;DHT22;3606;52.930;8.644;2023-01-06T08:21:02;10.30;99.90
7129;DHT22;3606;52.930;8.644;2023-01-06T08:23:28;10.30;99.90
7129;DHT22;3606;52.930;8.644;2023-01-06T08:26:04;10.20;99.90
7129;DHT22;3606;52.930;8.644;2023-01-06T08:28:30;10.10;99.90
7129;DHT22;3606;52.930;8.644;2023-01-06T08:30:56;10.20;99.90
7129;DHT22;3606;52.930;8.644;2023-01-06T08:33:22;10.20;99.90
7129;DHT22;3606;52.930;8.644;2023-01-06T08:35:51;10.10;99.90
7129;DHT22;3606;52.930;8.644;2023-01-06T08:38:17;10.20;99.90
7129;DHT22;3606;52.930;8.644;2023-01-06T08:40:42;10.20;99.90
7129;DHT22;3606;52.930;8.644;2023-01-06T08:43:08;10.10;99.90
7129;DHT22;3606;52.930;8.644;2023-01-06T08:45:37;10.10;99.90
7129;DHT22;3606;52.930;8.644;2023-01-06T08:48:03;10.00;99.90
7129;DHT22;3606;52.930;8.644;2023-01-06T08:50:29;10.00;99.90
7129;DHT22;3606;52.930;8.644;2023-01-06T08:52:54;10.00;99.90
7129;DHT22;3606;52.930;8.644;2023-01-06T08:55:20;10.00;99.90
7129;DHT22;3606;52.930;8.644;2023-01-06T08:57:46;10.10;99.90
7129;DHT22;3606;52.930;8.644;2023-01-06T09:00:12;10.00;99.90
7129;DHT22;3606;52.930;8.644;2023-01-06T09:02:37;10.10;99.90
7129;DHT22;3606;52.930;8.644;2023-01-06T09:05:04;10.10;99.90
7129;DHT22;3606;52.930;8.644;2023-01-06T09:07:29;10.10;99.90
7129;DHT22;3606;52.930;8.644;2023-01-06T09:09:55;10.10;99.90
7129;DHT22;3606;52.930;8.644;2023-01-06T09:12:20;10.20;99.90
7129;DHT22;3606;52.930;8.644;2023-01-06T09:14:46;10.20;99.90
7129;DHT22;3606;52.930;8.644;2023-01-06T09:17:11;10.30;99.90
7129;DHT22;3606;52.930;8.644;2023-01-06T09:19:37;10.20;99.90
7129;DHT22;3606;52.930;8.644;2023-01-06T09:22:03;10.20;99.90
7129;DHT22;3606;52.930;8.644;2023-01-06T09:24:29;10.30;99.90
7129;DHT22;3606;52.930;8.644;2023-01-06T09:26:54;10.30;99.90
7129;DHT22;3606;52.930;8.644;2023-01-06T09:29:20;10.30;99.90
7129;DHT22;3606;52.930;8.644;2023-01-06T09:31:46;10.20;99.90
7129;DHT22;3606;52.930;8.644;2023-01-06T09:34:11;10.20;99.90
7129;DHT22;3606;52.930;8.644;2023-01-06T09:36:37;10.20;99.90
7129;DHT22;3606;52.930;8.644;2023-01-06T09:39:02;10.30;99.90
7129;DHT22;3606;52.930;8.644;2023-01-06T09:44:16;10.30;99.90
7129;DHT22;3606;52.930;8.644;2023-01-06T09:46:45;10.20;99.90
7129;DHT22;3606;52.930;8.644;2023-01-06T09:52:03;10.30;99.90
7129;DHT22;3606;52.930;8.644;2023-01-06T09:55:27;10.30;99.90
7129;DHT22;3606;52.930;8.644;2023-01-06T09:57:53;10.40;99.90
7129;DHT22;3606;52.930;8.644;2023-01-06T10:02:48;10.40;99.90
7129;DHT22;3606;52.930;8.644;2023-01-06T10:05:25;10.50;99.90
7129;DHT22;3606;52.930;8.644;2023-01-06T10:08:07;10.50;99.90
7129;DHT22;3606;52.930;8.644;2023-01-06T10:10:59;10.40;99.90
7129;DHT22;3606;52.930;8.644;2023-01-06T10:16:39;10.40;99.90
7129;DHT22;3606;52.930;8.644;2023-01-06T10:22:14;10.40;99.90
7129;DHT22;3606;52.930;8.644;2023-01-06T10:25:01;10.50;99.90
7129;DHT22;3606;52.930;8.644;2023-01-06T10:27:45;10.60;99.90
7129;DHT22;3606;52.930;8.644;2023-01-06T10:30:31;11.60;99.90
7129;DHT22;3606;52.930;8.644;2023-01-06T10:32:59;12.70;99.90
7129;DHT22;3606;52.930;8.644;2023-01-06T10:35:26;13.40;1.00
7129;DHT22;3606;52.930;8.644;2023-01-06T10:37:52;13.50;1.00
7129;DHT22;3606;52.930;8.644;2023-01-06T10:40:27;13.20;99.90
7129;DHT22;3606;52.930;8.644;2023-01-06T10:43:06;12.70;1.00
7129;DHT22;3606;52.930;8.644;2023-01-06T10:45:43;12.20;1.00
7129;DHT22;3606;52.930;8.644;2023-01-06T10:48:14;11.80;1.00
7129;DHT22;3606;52.930;8.644;2023-01-06T10:50:41;11.50;1.00
7129;DHT22;3606;52.930;8.644;2023-01-06T10:53:12;11.30;61.50
7129;DHT22;3606;52.930;8.644;2023-01-06T10:55:54;11.30;29.30
7129;DHT22;3606;52.930;8.644;2023-01-06T11:01:09;11.00;1.00
7129;DHT22;3606;52.930;8.644;2023-01-06T11:03:37;10.80;1.00
7129;DHT22;3606;52.930;8.644;2023-01-06T11:06:17;10.60;1.00
7129;DHT22;3606;52.930;8.644;2023-01-06T11:08:48;10.40;5.90
7129;DHT22;3606;52.930;8.644;2023-01-06T11:11:15;10.40;1.00
7129;DHT22;3606;52.930;8.644;2023-01-06T11:13:45;10.30;1.00
7129;DHT22;3606;52.930;8.644;2023-01-06T11:16:23;10.30;1.00
7129;DHT22;3606;52.930;8.644;2023-01-06T11:18:52;10.30;1.00
7129;DHT22;3606;52.930;8.644;2023-01-06T11:21:18;10.30;1.00
7129;DHT22;3606;52.930;8.644;2023-01-06T11:23:45;10.30;1.00
7129;DHT22;3606;52.930;8.644;2023-01-06T11:26:17;10.30;1.00
7129;DHT22;3606;52.930;8.644;2023-01-06T11:28:45;10.30;1.00
7129;DHT22;3606;52.930;8.644;2023-01-06T11:31:17;10.30;99.90
7129;DHT22;3606;52.930;8.644;2023-01-06T11:33:58;10.30;99.90
7129;DHT22;3606;52.930;8.644;2023-01-06T11:36:27;10.40;99.90
7129;DHT22;3606;52.930;8.644;2023-01-06T11:39:12;10.40;1.00
7129;DHT22;3606;52.930;8.644;2023-01-06T11:41:43;10.40;1.00
7129;DHT22;3606;52.930;8.644;2023-01-06T11:44:13;10.40;99.90
7129;DHT22;3606;52.930;8.644;2023-01-06T11:46:47;10.50;99.90
7129;DHT22;3606;52.930;8.644;2023-01-06T11:49:18;10.50;99.90
7129;DHT22;3606;52.930;8.644;2023-01-06T11:51:47;10.50;99.90
7129;DHT22;3606;52.930;8.644;2023-01-06T11:54:37;10.70;1.00
7129;DHT22;3606;52.930;8.644;2023-01-06T11:57:18;10.90;1.00
7129;DHT22;3606;52.930;8.644;2023-01-06T12:02:29;11.50;99.90
7129;DHT22;3606;52.930;8.644;2023-01-06T12:04:57;11.90;1.00
7129;DHT22;3606;52.930;8.644;2023-01-06T12:07:37;12.10;1.00
7129;DHT22;3606;52.930;8.644;2023-01-06T12:10:15;12.20;99.90
7129;DHT22;3606;52.930;8.644;2023-01-06T12:12:42;12.30;1.00
7129;DHT22;3606;52.930;8.644;2023-01-06T12:15:18;12.20;1.00
7129;DHT22;3606;52.930;8.644;2023-01-06T12:18:00;11.80;14.80
7129;DHT22;3606;52.930;8.644;2023-01-06T12:20:31;11.40;1.00
7129;DHT22;3606;52.930;8.644;2023-01-06T12:23:06;11.20;99.90
7129;DHT22;3606;52.930;8.644;2023-01-06T12:25:45;11.10;1.00
7129;DHT22;3606;52.930;8.644;2023-01-06T12:28:23;11.10;1.00
7129;DHT22;3606;52.930;8.644;2023-01-06T12:33:55;11.80;99.90
7129;DHT22;3606;52.930;8.644;2023-01-06T12:37:00;11.80;99.90
7129;DHT22;3606;52.930;8.644;2023-01-06T12:39:40;11.60;1.00
7129;DHT22;3606;52.930;8.644;2023-01-06T12:42:30;11.40;99.90
7129;DHT22;3606;52.930;8.644;2023-01-06T12:45:13;11.10;1.00
7129;DHT22;3606;52.930;8.644;2023-01-06T12:47:47;10.80;1.00
7129;DHT22;3606;52.930;8.644;2023-01-06T12:50:16;10.70;66.10
7129;DHT22;3606;52.930;8.644;2023-01-06T12:58:49;10.40;99.90
7129;DHT22;3606;52.930;8.644;2023-01-06T13:01:38;10.30;1.00
7129;DHT22;3606;52.930;8.644;2023-01-06T13:04:13;10.10;1.00
7129;DHT22;3606;52.930;8.644;2023-01-06T13:09:46;10.00;99.90
7129;DHT22;3606;52.930;8.644;2023-01-06T13:15:18;10.10;29.30
7129;DHT22;3606;52.930;8.644;2023-01-06T13:20:24;10.30;1.00
7129;DHT22;3606;52.930;8.644;2023-01-06T13:28:34;10.30;99.90
7129;DHT22;3606;52.930;8.644;2023-01-06T13:40:08;10.20;1.00
7129;DHT22;3606;52.930;8.644;2023-01-06T13:45:04;10.50;1.00
7129;DHT22;3606;52.930;8.644;2023-01-06T13:47:32;10.70;1.00
7129;DHT22;3606;52.930;8.644;2023-01-06T13:49:59;10.70;99.90
7129;DHT22;3606;52.930;8.644;2023-01-06T13:52:28;10.60;1.00
7129;DHT22;3606;52.930;8.644;2023-01-06T13:55:00;10.50;1.00
7129;DHT22;3606;52.930;8.644;2023-01-06T13:57:36;10.60;1.00
7129;DHT22;3606;52.930;8.644;2023-01-06T14:05:04;10.70;1.00
7129;DHT22;3606;52.930;8.644;2023-01-06T14:09:56;10.70;1.00
7129;DHT22;3606;52.930;8.644;2023-01-06T14:12:23;10.80;1.00
7129;DHT22;3606;52.930;8.644;2023-01-06T14:14:58;10.80;99.90
7129;DHT22;3606;52.930;8.644;2023-01-06T14:17:39;10.90;1.00
7129;DHT22;3606;52.930;8.644;2023-01-06T14:20:17;11.10;99.90
7129;DHT22;3606;52.930;8.644;2023-01-06T14:22:44;11.10;99.90
7129;DHT22;3606;52.930;8.644;2023-01-06T14:25:22;10.70;1.00
7129;DHT22;3606;52.930;8.644;2023-01-06T14:30:34;10.20;99.90
7129;DHT22;3606;52.930;8.644;2023-01-06T14:35:39;9.90;72.10
7129;DHT22;3606;52.930;8.644;2023-01-06T14:38:23;9.70;99.90
7129;DHT22;3606;52.930;8.644;2023-01-06T14:41:05;9.70;1.00
7129;DHT22;3606;52.930;8.644;2023-01-06T14:43:40;9.60;66.70
7129;DHT22;3606;52.930;8.644;2023-01-06T14:46:18;9.60;1.00
7129;DHT22;3606;52.930;8.644;2023-01-06T14:48:59;9.50;1.00
7129;DHT22;3606;52.930;8.644;2023-01-06T14:51:26;9.50;99.90
7129;DHT22;3606;52.930;8.644;2023-01-06T14:53:59;9.40;1.00
7129;DHT22;3606;52.930;8.644;2023-01-06T14:56:28;9.40;3.90
7129;DHT22;3606;52.930;8.644;2023-01-06T14:59:05;9.20;99.90
7129;DHT22;3606;52.930;8.644;2023-01-06T15:01:36;9.20;99.90
7129;DHT22;3606;52.930;8.644;2023-01-06T15:04:03;9.00;1.00
7129;DHT22;3606;52.930;8.644;2023-01-06T15:06:31;9.00;99.90
7129;DHT22;3606;52.930;8.644;2023-01-06T15:09:17;8.90;99.90
7129;DHT22;3606;52.930;8.644;2023-01-06T15:11:44;8.80;1.00
7129;DHT22;3606;52.930;8.644;2023-01-06T15:14:33;8.80;34.50
7129;DHT22;3606;52.930;8.644;2023-01-06T15:17:05;8.90;99.90
7129;DHT22;3606;52.930;8.644;2023-01-06T15:19:32;8.90;99.90
7129;DHT22;3606;52.930;8.644;2023-01-06T15:21:59;8.80;1.00
7129;DHT22;3606;52.930;8.644;2023-01-06T15:24:30;8.70;1.00
7129;DHT22;3606;52.930;8.644;2023-01-06T15:27:03;8.70;1.00
7129;DHT22;3606;52.930;8.644;2023-01-06T15:29:29;8.70;1.00
7129;DHT22;3606;52.930;8.644;2023-01-06T15:31:55;8.60;99.90
7129;DHT22;3606;52.930;8.644;2023-01-06T15:34:26;8.70;72.30
7129;DHT22;3606;52.930;8.644;2023-01-06T15:36:55;8.70;1.00
7129;DHT22;3606;52.930;8.644;2023-01-06T15:39:31;8.80;14.20
7129;DHT22;3606;52.930;8.644;2023-01-06T15:41:58;8.70;1.00
7129;DHT22;3606;52.930;8.644;2023-01-06T15:44:26;8.60;24.60
7129;DHT22;3606;52.930;8.644;2023-01-06T15:46:57;8.50;1.00
7129;DHT22;3606;52.930;8.644;2023-01-06T15:49:30;8.40;99.90
7129;DHT22;3606;52.930;8.644;2023-01-06T15:52:03;8.40;1.00
7129;DHT22;3606;52.930;8.644;2023-01-06T15:54:31;8.40;99.90
7129;DHT22;3606;52.930;8.644;2023-01-06T15:56:59;8.50;99.90
7129;DHT22;3606;52.930;8.644;2023-01-06T15:59:25;8.40;99.90
7129;DHT22;3606;52.930;8.644;2023-01-06T16:01:54;8.30;1.00
7129;DHT22;3606;52.930;8.644;2023-01-06T16:04:21;8.20;1.00
7129;DHT22;3606;52.930;8.644;2023-01-06T16:06:47;8.20;1.00
7129;DHT22;3606;52.930;8.644;2023-01-06T16:14:36;7.90;1.00
7129;DHT22;3606;52.930;8.644;2023-01-06T16:19:44;7.60;1.00
7129;DHT22;3606;52.930;8.644;2023-01-06T16:22:28;7.60;1.00
7129;DHT22;3606;52.930;8.644;2023-01-06T16:24:55;7.60;1.00
7129;DHT22;3606;52.930;8.644;2023-01-06T16:27:24;7.60;2.50
7129;DHT22;3606;52.930;8.644;2023-01-06T16:30:29;7.60;14.70
7129;DHT22;3606;52.930;8.644;2023-01-06T16:32:56;7.50;7.00
7129;DHT22;3606;52.930;8.644;2023-01-06T16:35:26;7.60;6.30
7129;DHT22;3606;52.930;8.644;2023-01-06T16:37:52;7.70;1.00
7129;DHT22;3606;52.930;8.644;2023-01-06T16:40:19;7.70;1.00
7129;DHT22;3606;52.930;8.644;2023-01-06T16:42:46;7.80;1.00
7129;DHT22;3606;52.930;8.644;2023-01-06T16:47:40;7.80;99.90
7129;DHT22;3606;52.930;8.644;2023-01-06T16:50:14;7.80;99.90
7129;DHT22;3606;52.930;8.644;2023-01-06T16:52:42;7.70;99.90
7129;DHT22;3606;52.930;8.644;2023-01-06T16:55:12;7.60;99.90
7129;DHT22;3606;52.930;8.644;2023-01-06T16:57:38;7.60;1.00
7129;DHT22;3606;52.930;8.644;2023-01-06T17:00:04;7.60;1.00
7129;DHT22;3606;52.930;8.644;2023-01-06T17:02:33;7.60;1.00
7129;DHT22;3606;52.930;8.644;2023-01-06T17:04:59;7.60;99.90
7129;DHT22;3606;52.930;8.644;2023-01-06T17:07:25;7.60;99.90
7129;DHT22;3606;52.930;8.644;2023-01-06T17:09:50;7.60;99.90
7129;DHT22;3606;52.930;8.644;2023-01-06T17:12:16;7.60;99.90
7129;DHT22;3606;52.930;8.644;2023-01-06T17:15:02;7.50;99.90
7129;DHT22;3606;52.930;8.644;2023-01-06T17:17:27;7.50;99.90
7129;DHT22;3606;52.930;8.644;2023-01-06T17:19:53;7.40;1.00
7129;DHT22;3606;52.930;8.644;2023-01-06T17:22:27;7.40;1.00
7129;DHT22;3606;52.930;8.644;2023-01-06T17:24:54;7.40;1.00
7129;DHT22;3606;52.930;8.644;2023-01-06T17:27:25;7.40;1.00
7129;DHT22;3606;52.930;8.644;2023-01-06T17:29:52;7.50;1.00
7129;DHT22;3606;52.930;8.644;2023-01-06T17:34:51;7.50;1.00
7129;DHT22;3606;52.930;8.644;2023-01-06T17:37:25;7.40;1.00
7129;DHT22;3606;52.930;8.644;2023-01-06T17:39:52;7.30;1.00
7129;DHT22;3606;52.930;8.644;2023-01-06T17:44:55;7.30;1.00
7129;DHT22;3606;52.930;8.644;2023-01-06T17:52:34;7.40;1.00
7129;DHT22;3606;52.930;8.644;2023-01-06T17:55:31;7.40;1.00
7129;DHT22;3606;52.930;8.644;2023-01-06T17:58:15;7.40;1.00
7129;DHT22;3606;52.930;8.644;2023-01-06T18:00:41;7.30;1.00
7129;DHT22;3606;52.930;8.644;2023-01-06T18:03:24;7.20;33.40
7129;DHT22;3606;52.930;8.644;2023-01-06T18:08:25;7.20;99.90
7129;DHT22;3606;52.930;8.644;2023-01-06T18:11:19;7.10;99.90
7129;DHT22;3606;52.930;8.644;2023-01-06T18:13:46;7.10;99.90
7129;DHT22;3606;52.930;8.644;2023-01-06T18:16:27;7.10;99.90
7129;DHT22;3606;52.930;8.644;2023-01-06T18:19:20;7.00;99.90
7129;DHT22;3606;52.930;8.644;2023-01-06T18:21:42;7.00;99.90
7129;DHT22;3606;52.930;8.644;2023-01-06T18:24:35;6.90;99.90
7129;DHT22;3606;52.930;8.644;2023-01-06T18:29:39;6.90;99.90
7129;DHT22;3606;52.930;8.644;2023-01-06T18:32:26;6.80;99.90
7129;DHT22;3606;52.930;8.644;2023-01-06T18:37:25;6.70;99.90
7129;DHT22;3606;52.930;8.644;2023-01-06T18:39:56;6.70;99.90
7129;DHT22;3606;52.930;8.644;2023-01-06T18:47:55;6.70;99.90
7129;DHT22;3606;52.930;8.644;2023-01-06T18:50:30;6.70;99.90
7129;DHT22;3606;52.930;8.644;2023-01-06T18:52:59;6.70;99.90
7129;DHT22;3606;52.930;8.644;2023-01-06T18:55:37;6.70;99.90